sensor_id;sensor_type;location;lat;lon;timestamp;pressure;altitude;pressure_sealevel;temperature;humidity
71621;BME280;59471;42.254;23.102;2023-05-20T00:00:30;96145.78;;;13.02;80.34
71621;BME280;59471;42.254;23.102;2023-05-20T00:02:55;96151.72;;;12.74;81.63
71621;BME280;59471;42.254;23.102;2023-05-20T00:05:22;96144.72;;;12.82;81.63
71621;BME280;59471;42.254;23.102;2023-05-20T00:07:48;96144.00;;;12.73;81.85
71621;BME280;59471;42.254;23.102;2023-05-20T00:10:13;96147.28;;;12.60;81.80
71621;BME280;59471;42.254;23.102;2023-05-20T00:12:39;96147.47;;;12.44;82.32
71621;BME280;59471;42.254;23.102;2023-05-20T00:15:05;96152.19;;;12.34;83.45
71621;BME280;59471;42.254;23.102;2023-05-20T00:17:31;96153.25;;;12.24;83.53
71621;BME280;59471;42.254;23.102;2023-05-20T00:19:57;96152.06;;;12.42;82.69
71621;BME280;59471;42.254;23.102;2023-05-20T00:22:24;96149.00;;;12.53;82.53
71621;BME280;59471;42.254;23.102;2023-05-20T00:24:50;96144.31;;;12.34;82.52
71621;BME280;59471;42.254;23.102;2023-05-20T00:27:15;96145.00;;;12.13;83.57
71621;BME280;59471;42.254;23.102;2023-05-20T00:29:41;96143.69;;;11.94;83.44
71621;BME280;59471;42.254;23.102;2023-05-20T00:32:06;96142.47;;;11.81;84.84
71621;BME280;59471;42.254;23.102;2023-05-20T00:34:32;96139.34;;;11.63;85.71
71621;BME280;59471;42.254;23.102;2023-05-20T00:36:57;96141.25;;;11.69;85.59
71621;BME280;59471;42.254;23.102;2023-05-20T00:39:23;96133.31;;;11.77;84.64
71621;BME280;59471;42.254;23.102;2023-05-20T00:41:49;96137.31;;;11.73;84.69
71621;BME280;59471;42.254;23.102;2023-05-20T00:44:14;96137.78;;;11.54;85.83
71621;BME280;59471;42.254;23.102;2023-05-20T00:46:40;96136.13;;;11.53;85.75
71621;BME280;59471;42.254;23.102;2023-05-20T00:49:05;96141.25;;;11.69;85.06
71621;BME280;59471;42.254;23.102;2023-05-20T00:51:32;96140.19;;;11.78;84.01
71621;BME280;59471;42.254;23.102;2023-05-20T00:53:57;96140.34;;;11.62;84.58
71621;BME280;59471;42.254;23.102;2023-05-20T00:56:23;96146.84;;;11.66;84.95
71621;BME280;59471;42.254;23.102;2023-05-20T00:58:49;96141.84;;;11.56;84.95
71621;BME280;59471;42.254;23.102;2023-05-20T01:01:15;96153.09;;;11.65;84.60
71621;BME280;59471;42.254;23.102;2023-05-20T01:03:40;96158.88;;;11.60;84.97
71621;BME280;59471;42.254;23.102;2023-05-20T01:06:06;96151.41;;;11.72;84.13
71621;BME280;59471;42.254;23.102;2023-05-20T01:08:31;96150.03;;;11.39;84.78
71621;BME280;59471;42.254;23.102;2023-05-20T01:11:22;96161.09;;;11.49;84.33
71621;BME280;59471;42.254;23.102;2023-05-20T01:13:54;96156.00;;;11.24;85.59
71621;BME280;59471;42.254;23.102;2023-05-20T01:16:23;96150.25;;;11.29;85.27
71621;BME280;59471;42.254;23.102;2023-05-20T01:18:50;96152.34;;;11.10;85.45
71621;BME280;59471;42.254;23.102;2023-05-20T01:21:19;96149.59;;;11.04;85.76
71621;BME280;59471;42.254;23.102;2023-05-20T01:23:46;96152.69;;;11.07;85.08
71621;BME280;59471;42.254;23.102;2023-05-20T01:26:12;96159.31;;;11.18;84.75
71621;BME280;59471;42.254;23.102;2023-05-20T01:28:38;96164.81;;;10.69;87.55
71621;BME280;59471;42.254;23.102;2023-05-20T01:31:08;96162.69;;;10.73;87.87
71621;BME280;59471;42.254;23.102;2023-05-20T01:33:36;96167.81;;;10.97;86.23
71621;BME280;59471;42.254;23.102;2023-05-20T01:36:04;96166.75;;;11.06;85.50
71621;BME280;59471;42.254;23.102;2023-05-20T01:38:30;96167.59;;;11.07;85.16
71621;BME280;59471;42.254;23.102;2023-05-20T01:40:56;96159.16;;;10.88;85.43
71621;BME280;59471;42.254;23.102;2023-05-20T01:43:24;96154.00;;;10.72;86.45
71621;BME280;59471;42.254;23.102;2023-05-20T01:45:50;96148.09;;;10.78;86.21
71621;BME280;59471;42.254;23.102;2023-05-20T01:48:15;96145.16;;;10.73;86.53
71621;BME280;59471;42.254;23.102;2023-05-20T01:50:41;96128.59;;;10.33;87.77
71621;BME280;59471;42.254;23.102;2023-05-20T01:53:07;96152.63;;;10.84;86.73
71621;BME280;59471;42.254;23.102;2023-05-20T01:55:34;96153.28;;;10.86;87.66
71621;BME280;59471;42.254;23.102;2023-05-20T01:58:00;96135.22;;;10.60;88.71
71621;BME280;59471;42.254;23.102;2023-05-20T02:00:26;96139.72;;;10.75;87.34
71621;BME280;59471;42.254;23.102;2023-05-20T02:02:52;96133.72;;;10.66;86.26
71621;BME280;59471;42.254;23.102;2023-05-20T02:05:17;96142.97;;;10.46;86.57
71621;BME280;59471;42.254;23.102;2023-05-20T02:07:43;96139.00;;;10.50;86.20
71621;BME280;59471;42.254;23.102;2023-05-20T02:10:09;96135.97;;;10.38;87.30
71621;BME280;59471;42.254;23.102;2023-05-20T02:12:35;96124.94;;;10.51;87.34
71621;BME280;59471;42.254;23.102;2023-05-20T02:15:00;96127.66;;;10.65;85.74
71621;BME280;59471;42.254;23.102;2023-05-20T02:17:26;96132.22;;;10.32;85.74
71621;BME280;59471;42.254;23.102;2023-05-20T02:19:51;96142.69;;;10.32;86.31
71621;BME280;59471;42.254;23.102;2023-05-20T02:22:17;96154.16;;;10.31;86.26
71621;BME280;59471;42.254;23.102;2023-05-20T02:24:43;96141.06;;;10.31;85.90
71621;BME280;59471;42.254;23.102;2023-05-20T02:27:08;96134.16;;;10.30;86.01
71621;BME280;59471;42.254;23.102;2023-05-20T02:29:34;96134.22;;;9.97;87.87
71621;BME280;59471;42.254;23.102;2023-05-20T02:32:01;96129.56;;;10.24;87.17
71621;BME280;59471;42.254;23.102;2023-05-20T02:34:26;96135.50;;;10.02;88.30
71621;BME280;59471;42.254;23.102;2023-05-20T02:36:54;96145.81;;;10.28;87.98
71621;BME280;59471;42.254;23.102;2023-05-20T02:39:20;96145.97;;;10.02;88.91
71621;BME280;59471;42.254;23.102;2023-05-20T02:41:46;96142.38;;;10.19;89.37
71621;BME280;59471;42.254;23.102;2023-05-20T02:44:12;96137.78;;;10.13;90.32
71621;BME280;59471;42.254;23.102;2023-05-20T02:46:37;96137.00;;;10.12;90.75
71621;BME280;59471;42.254;23.102;2023-05-20T02:49:03;96134.31;;;10.37;90.29
71621;BME280;59471;42.254;23.102;2023-05-20T02:51:28;96140.38;;;10.37;88.73
71621;BME280;59471;42.254;23.102;2023-05-20T02:53:56;96147.72;;;10.42;88.72
71621;BME280;59471;42.254;23.102;2023-05-20T02:56:21;96143.56;;;10.56;88.04
71621;BME280;59471;42.254;23.102;2023-05-20T02:58:48;96158.34;;;10.49;87.25
71621;BME280;59471;42.254;23.102;2023-05-20T03:01:14;96157.75;;;10.22;89.04
71621;BME280;59471;42.254;23.102;2023-05-20T03:03:39;96158.91;;;10.28;88.74
71621;BME280;59471;42.254;23.102;2023-05-20T03:06:06;96160.34;;;10.22;88.82
71621;BME280;59471;42.254;23.102;2023-05-20T03:08:32;96157.75;;;10.22;88.39
71621;BME280;59471;42.254;23.102;2023-05-20T03:11:01;96164.94;;;10.20;88.82
71621;BME280;59471;42.254;23.102;2023-05-20T03:13:26;96163.31;;;10.19;89.27
71621;BME280;59471;42.254;23.102;2023-05-20T03:15:52;96158.72;;;10.29;89.52
71621;BME280;59471;42.254;23.102;2023-05-20T03:18:18;96164.94;;;10.20;90.17
71621;BME280;59471;42.254;23.102;2023-05-20T03:20:45;96155.78;;;10.08;90.55
71621;BME280;59471;42.254;23.102;2023-05-20T03:23:10;96154.78;;;10.25;89.05
71621;BME280;59471;42.254;23.102;2023-05-20T03:25:37;96161.66;;;10.18;89.80
71621;BME280;59471;42.254;23.102;2023-05-20T03:28:03;96172.44;;;10.39;89.71
71621;BME280;59471;42.254;23.102;2023-05-20T03:30:30;96175.09;;;10.31;88.97
71621;BME280;59471;42.254;23.102;2023-05-20T03:32:57;96175.75;;;10.09;90.59
71621;BME280;59471;42.254;23.102;2023-05-20T03:35:23;96166.91;;;10.02;90.06
71621;BME280;59471;42.254;23.102;2023-05-20T03:37:48;96169.19;;;10.05;90.40
71621;BME280;59471;42.254;23.102;2023-05-20T03:40:15;96172.13;;;10.18;89.91
71621;BME280;59471;42.254;23.102;2023-05-20T03:42:41;96181.94;;;10.24;90.33
71621;BME280;59471;42.254;23.102;2023-05-20T03:45:07;96184.56;;;10.32;89.92
71621;BME280;59471;42.254;23.102;2023-05-20T03:47:33;96173.91;;;10.42;87.82
71621;BME280;59471;42.254;23.102;2023-05-20T03:49:58;96186.84;;;10.35;87.78
71621;BME280;59471;42.254;23.102;2023-05-20T03:52:24;96197.78;;;10.47;87.94
71621;BME280;59471;42.254;23.102;2023-05-20T03:54:49;96198.56;;;10.56;87.19
71621;BME280;59471;42.254;23.102;2023-05-20T03:57:15;96194.31;;;10.55;87.01
71621;BME280;59471;42.254;23.102;2023-05-20T03:59:40;96194.38;;;10.47;87.24
71621;BME280;59471;42.254;23.102;2023-05-20T04:02:06;96196.50;;;10.27;89.23
71621;BME280;59471;42.254;23.102;2023-05-20T04:04:32;96201.28;;;10.31;88.65
71621;BME280;59471;42.254;23.102;2023-05-20T04:06:58;96197.31;;;10.27;89.28
71621;BME280;59471;42.254;23.102;2023-05-20T04:09:27;96192.41;;;10.32;89.18
71621;BME280;59471;42.254;23.102;2023-05-20T04:11:52;96184.38;;;10.42;89.03
71621;BME280;59471;42.254;23.102;2023-05-20T04:14:18;96184.19;;;10.52;88.64
71621;BME280;59471;42.254;23.102;2023-05-20T04:16:44;96184.72;;;10.39;90.67
71621;BME280;59471;42.254;23.102;2023-05-20T04:19:10;96182.75;;;10.41;89.80
71621;BME280;59471;42.254;23.102;2023-05-20T04:21:36;96187.78;;;10.51;89.99
71621;BME280;59471;42.254;23.102;2023-05-20T04:24:03;96182.22;;;10.54;90.59
71621;BME280;59471;42.254;23.102;2023-05-20T04:26:29;96191.03;;;10.69;89.41
71621;BME280;59471;42.254;23.102;2023-05-20T04:28:54;96196.25;;;10.69;90.00
71621;BME280;59471;42.254;23.102;2023-05-20T04:31:23;96197.53;;;10.73;89.75
71621;BME280;59471;42.254;23.102;2023-05-20T04:33:51;96188.81;;;10.89;88.67
71621;BME280;59471;42.254;23.102;2023-05-20T04:36:17;96191.34;;;11.05;89.96
71621;BME280;59471;42.254;23.102;2023-05-20T04:38:43;96191.88;;;11.01;89.40
71621;BME280;59471;42.254;23.102;2023-05-20T04:41:09;96193.47;;;11.10;87.93
71621;BME280;59471;42.254;23.102;2023-05-20T04:43:35;96194.53;;;11.24;89.04
71621;BME280;59471;42.254;23.102;2023-05-20T04:46:03;96199.44;;;11.27;87.03
71621;BME280;59471;42.254;23.102;2023-05-20T04:48:32;96191.72;;;11.25;87.43
71621;BME280;59471;42.254;23.102;2023-05-20T04:50:58;96191.63;;;11.42;86.45
71621;BME280;59471;42.254;23.102;2023-05-20T04:53:23;96197.50;;;11.44;87.02
71621;BME280;59471;42.254;23.102;2023-05-20T04:55:53;96193.38;;;11.49;87.43
71621;BME280;59471;42.254;23.102;2023-05-20T04:58:19;96197.25;;;11.85;86.04
71621;BME280;59471;42.254;23.102;2023-05-20T05:00:49;96196.66;;;11.97;84.84
71621;BME280;59471;42.254;23.102;2023-05-20T05:03:15;96204.88;;;12.17;83.42
71621;BME280;59471;42.254;23.102;2023-05-20T05:05:41;96208.69;;;12.29;83.05
71621;BME280;59471;42.254;23.102;2023-05-20T05:08:08;96200.31;;;12.26;82.85
71621;BME280;59471;42.254;23.102;2023-05-20T05:10:35;96200.91;;;12.36;84.42
71621;BME280;59471;42.254;23.102;2023-05-20T05:13:02;96214.88;;;12.51;83.67
71621;BME280;59471;42.254;23.102;2023-05-20T05:15:27;96210.06;;;12.55;83.59
71621;BME280;59471;42.254;23.102;2023-05-20T05:17:53;96210.63;;;12.65;83.60
71621;BME280;59471;42.254;23.102;2023-05-20T05:20:19;96212.78;;;12.76;83.23
71621;BME280;59471;42.254;23.102;2023-05-20T05:22:45;96207.44;;;12.99;82.74
71621;BME280;59471;42.254;23.102;2023-05-20T05:25:11;96199.06;;;13.11;82.55
71621;BME280;59471;42.254;23.102;2023-05-20T05:27:37;96195.91;;;12.86;83.74
71621;BME280;59471;42.254;23.102;2023-05-20T05:30:03;96196.28;;;12.97;82.53
71621;BME280;59471;42.254;23.102;2023-05-20T05:32:30;96193.13;;;13.02;83.01
71621;BME280;59471;42.254;23.102;2023-05-20T05:34:55;96179.59;;;13.05;82.06
71621;BME280;59471;42.254;23.102;2023-05-20T05:37:21;96187.38;;;13.28;80.56
71621;BME280;59471;42.254;23.102;2023-05-20T05:39:46;96192.34;;;13.59;80.14
71621;BME280;59471;42.254;23.102;2023-05-20T05:42:12;96183.72;;;13.65;79.94
71621;BME280;59471;42.254;23.102;2023-05-20T05:44:38;96182.31;;;13.70;80.59
71621;BME280;59471;42.254;23.102;2023-05-20T05:47:03;96182.69;;;13.66;80.34
71621;BME280;59471;42.254;23.102;2023-05-20T05:49:31;96182.53;;;13.96;80.34
71621;BME280;59471;42.254;23.102;2023-05-20T05:51:57;96184.75;;;14.21;78.39
71621;BME280;59471;42.254;23.102;2023-05-20T05:54:22;96195.06;;;14.16;79.06
71621;BME280;59471;42.254;23.102;2023-05-20T05:56:50;96197.47;;;14.38;76.61
71621;BME280;59471;42.254;23.102;2023-05-20T05:59:16;96199.91;;;14.40;76.94
71621;BME280;59471;42.254;23.102;2023-05-20T06:01:41;96194.38;;;14.56;77.21
71621;BME280;59471;42.254;23.102;2023-05-20T06:04:07;96201.78;;;14.74;76.71
71621;BME280;59471;42.254;23.102;2023-05-20T06:06:33;96190.44;;;14.80;76.25
71621;BME280;59471;42.254;23.102;2023-05-20T06:08:58;96194.88;;;15.21;73.40
71621;BME280;59471;42.254;23.102;2023-05-20T06:11:24;96199.41;;;15.34;72.73
71621;BME280;59471;42.254;23.102;2023-05-20T06:13:50;96187.81;;;15.35;73.03
71621;BME280;59471;42.254;23.102;2023-05-20T06:16:16;96184.16;;;15.23;73.46
71621;BME280;59471;42.254;23.102;2023-05-20T06:18:42;96170.31;;;15.14;74.38
71621;BME280;59471;42.254;23.102;2023-05-20T06:21:09;96170.59;;;15.39;73.22
71621;BME280;59471;42.254;23.102;2023-05-20T06:23:35;96177.34;;;15.62;74.33
71621;BME280;59471;42.254;23.102;2023-05-20T06:26:00;96175.97;;;15.79;73.92
71621;BME280;59471;42.254;23.102;2023-05-20T06:28:26;96169.69;;;15.93;72.82
71621;BME280;59471;42.254;23.102;2023-05-20T06:30:53;96166.44;;;16.18;73.73
71621;BME280;59471;42.254;23.102;2023-05-20T06:33:21;96162.97;;;16.24;72.41
71621;BME280;59471;42.254;23.102;2023-05-20T06:35:50;96158.88;;;16.41;72.18
71621;BME280;59471;42.254;23.102;2023-05-20T06:38:17;96157.44;;;16.59;70.31
71621;BME280;59471;42.254;23.102;2023-05-20T06:40:43;96159.03;;;16.60;71.08
71621;BME280;59471;42.254;23.102;2023-05-20T06:43:08;96157.03;;;16.62;69.92
71621;BME280;59471;42.254;23.102;2023-05-20T06:45:34;96145.63;;;16.55;70.12
71621;BME280;59471;42.254;23.102;2023-05-20T06:47:59;96157.88;;;16.49;70.35
71621;BME280;59471;42.254;23.102;2023-05-20T06:50:25;96134.63;;;16.58;70.89
71621;BME280;59471;42.254;23.102;2023-05-20T06:52:52;96140.28;;;16.88;68.68
71621;BME280;59471;42.254;23.102;2023-05-20T06:55:18;96140.19;;;16.36;71.60
71621;BME280;59471;42.254;23.102;2023-05-20T06:57:44;96140.31;;;16.75;69.62
71621;BME280;59471;42.254;23.102;2023-05-20T07:00:10;96138.06;;;16.78;71.03
71621;BME280;59471;42.254;23.102;2023-05-20T07:02:38;96140.25;;;16.95;69.18
71621;BME280;59471;42.254;23.102;2023-05-20T07:05:04;96136.66;;;17.21;69.17
71621;BME280;59471;42.254;23.102;2023-05-20T07:07:30;96132.09;;;17.03;69.21
71621;BME280;59471;42.254;23.102;2023-05-20T07:09:56;96128.63;;;17.41;69.29
71621;BME280;59471;42.254;23.102;2023-05-20T07:12:21;96123.19;;;17.60;68.93
71621;BME280;59471;42.254;23.102;2023-05-20T07:14:47;96128.00;;;17.70;67.53
71621;BME280;59471;42.254;23.102;2023-05-20T07:17:12;96120.06;;;18.02;70.15
71621;BME280;59471;42.254;23.102;2023-05-20T07:19:38;96116.16;;;17.79;66.44
71621;BME280;59471;42.254;23.102;2023-05-20T07:22:03;96116.72;;;18.13;68.07
71621;BME280;59471;42.254;23.102;2023-05-20T07:24:29;96122.81;;;18.57;68.84
71621;BME280;59471;42.254;23.102;2023-05-20T07:26:54;96110.09;;;18.41;67.24
71621;BME280;59471;42.254;23.102;2023-05-20T07:29:20;96107.91;;;18.56;66.81
71621;BME280;59471;42.254;23.102;2023-05-20T07:31:46;96106.59;;;18.84;64.67
71621;BME280;59471;42.254;23.102;2023-05-20T07:34:11;96100.94;;;19.10;61.80
71621;BME280;59471;42.254;23.102;2023-05-20T07:36:37;96100.72;;;19.12;60.48
71621;BME280;59471;42.254;23.102;2023-05-20T07:39:03;96097.72;;;19.08;62.42
71621;BME280;59471;42.254;23.102;2023-05-20T07:41:29;96087.81;;;19.15;64.63
71621;BME280;59471;42.254;23.102;2023-05-20T07:43:54;96090.44;;;19.34;62.39
71621;BME280;59471;42.254;23.102;2023-05-20T07:46:20;96083.41;;;19.51;62.89
71621;BME280;59471;42.254;23.102;2023-05-20T07:48:45;96074.38;;;19.71;62.28
71621;BME280;59471;42.254;23.102;2023-05-20T07:51:11;96083.88;;;19.90;60.87
71621;BME280;59471;42.254;23.102;2023-05-20T07:53:36;96070.47;;;19.85;59.40
71621;BME280;59471;42.254;23.102;2023-05-20T07:56:02;96068.50;;;19.80;59.63
71621;BME280;59471;42.254;23.102;2023-05-20T07:58:28;96056.25;;;20.03;60.97
71621;BME280;59471;42.254;23.102;2023-05-20T08:00:55;96059.59;;;19.98;59.24
71621;BME280;59471;42.254;23.102;2023-05-20T08:03:21;96051.63;;;19.98;59.13
71621;BME280;59471;42.254;23.102;2023-05-20T08:05:47;96048.13;;;20.45;60.02
71621;BME280;59471;42.254;23.102;2023-05-20T08:08:13;96038.75;;;20.42;57.54
71621;BME280;59471;42.254;23.102;2023-05-20T08:10:39;96041.06;;;20.50;58.00
71621;BME280;59471;42.254;23.102;2023-05-20T08:13:05;96038.53;;;20.32;55.63
71621;BME280;59471;42.254;23.102;2023-05-20T08:15:31;96029.03;;;20.59;58.48
71621;BME280;59471;42.254;23.102;2023-05-20T08:17:56;96027.69;;;20.74;57.77
71621;BME280;59471;42.254;23.102;2023-05-20T08:20:22;96017.94;;;20.91;58.38
71621;BME280;59471;42.254;23.102;2023-05-20T08:22:47;96022.97;;;21.04;56.13
71621;BME280;59471;42.254;23.102;2023-05-20T08:25:13;96016.31;;;21.19;52.01
71621;BME280;59471;42.254;23.102;2023-05-20T08:27:39;95993.84;;;21.15;50.39
71621;BME280;59471;42.254;23.102;2023-05-20T08:30:06;96001.28;;;21.29;47.49
71621;BME280;59471;42.254;23.102;2023-05-20T08:32:34;95993.66;;;21.50;48.85
71621;BME280;59471;42.254;23.102;2023-05-20T08:35:01;95996.22;;;21.62;47.34
71621;BME280;59471;42.254;23.102;2023-05-20T08:37:27;95984.31;;;21.47;48.98
71621;BME280;59471;42.254;23.102;2023-05-20T08:39:55;95987.69;;;21.60;46.74
71621;BME280;59471;42.254;23.102;2023-05-20T08:42:22;95985.81;;;21.77;43.33
71621;BME280;59471;42.254;23.102;2023-05-20T08:44:50;95988.06;;;21.85;42.15
71621;BME280;59471;42.254;23.102;2023-05-20T08:47:18;95979.63;;;21.93;40.70
71621;BME280;59471;42.254;23.102;2023-05-20T08:49:45;95980.47;;;22.33;40.77
71621;BME280;59471;42.254;23.102;2023-05-20T08:52:11;95974.25;;;22.49;38.89
71621;BME280;59471;42.254;23.102;2023-05-20T08:54:48;95967.84;;;22.50;40.18
71621;BME280;59471;42.254;23.102;2023-05-20T08:57:14;95958.78;;;22.73;38.84
71621;BME280;59471;42.254;23.102;2023-05-20T08:59:44;95954.06;;;22.85;39.79
71621;BME280;59471;42.254;23.102;2023-05-20T09:02:14;95948.63;;;22.75;37.39
71621;BME280;59471;42.254;23.102;2023-05-20T09:04:39;95961.28;;;22.85;37.84
71621;BME280;59471;42.254;23.102;2023-05-20T09:07:05;95956.94;;;22.52;36.82
71621;BME280;59471;42.254;23.102;2023-05-20T09:09:32;95958.16;;;22.44;36.84
71621;BME280;59471;42.254;23.102;2023-05-20T09:12:00;95956.34;;;22.72;36.95
71621;BME280;59471;42.254;23.102;2023-05-20T09:14:27;95961.44;;;22.73;35.89
71621;BME280;59471;42.254;23.102;2023-05-20T09:16:53;95960.03;;;22.93;36.87
71621;BME280;59471;42.254;23.102;2023-05-20T09:19:21;95953.03;;;22.86;36.68
71621;BME280;59471;42.254;23.102;2023-05-20T09:21:48;95951.91;;;22.33;36.92
71621;BME280;59471;42.254;23.102;2023-05-20T09:24:21;95952.28;;;22.20;37.54
71621;BME280;59471;42.254;23.102;2023-05-20T09:26:48;95942.47;;;22.48;38.90
71621;BME280;59471;42.254;23.102;2023-05-20T09:29:14;95948.63;;;22.75;38.31
71621;BME280;59471;42.254;23.102;2023-05-20T09:31:39;95945.94;;;22.97;38.73
71621;BME280;59471;42.254;23.102;2023-05-20T09:34:05;95936.19;;;23.13;37.20
71621;BME280;59471;42.254;23.102;2023-05-20T09:36:33;95945.22;;;23.07;36.38
71621;BME280;59471;42.254;23.102;2023-05-20T09:39:00;95929.94;;;22.75;38.11
71621;BME280;59471;42.254;23.102;2023-05-20T09:41:38;95928.47;;;22.35;38.29
71621;BME280;59471;42.254;23.102;2023-05-20T09:44:09;95913.16;;;22.09;37.33
71621;BME280;59471;42.254;23.102;2023-05-20T09:46:35;95914.16;;;22.19;37.93
71621;BME280;59471;42.254;23.102;2023-05-20T09:49:02;95920.63;;;22.78;37.91
71621;BME280;59471;42.254;23.102;2023-05-20T09:51:28;95906.81;;;23.13;36.68
71621;BME280;59471;42.254;23.102;2023-05-20T09:53:54;95912.31;;;23.33;35.48
71621;BME280;59471;42.254;23.102;2023-05-20T09:56:22;95914.38;;;23.21;35.79
71621;BME280;59471;42.254;23.102;2023-05-20T09:58:49;95901.47;;;23.13;35.87
71621;BME280;59471;42.254;23.102;2023-05-20T10:01:22;95904.78;;;23.25;36.32
71621;BME280;59471;42.254;23.102;2023-05-20T10:03:48;95901.75;;;23.49;36.18
71621;BME280;59471;42.254;23.102;2023-05-20T10:17:23;95875.09;;;23.64;35.64
71621;BME280;59471;42.254;23.102;2023-05-20T10:19:57;95873.72;;;23.56;36.21
71621;BME280;59471;42.254;23.102;2023-05-20T10:22:28;95862.41;;;23.87;37.36
71621;BME280;59471;42.254;23.102;2023-05-20T10:25:04;95869.25;;;24.25;36.34
71621;BME280;59471;42.254;23.102;2023-05-20T10:27:42;95860.94;;;24.26;36.03
71621;BME280;59471;42.254;23.102;2023-05-20T10:30:15;95853.94;;;24.10;35.60
71621;BME280;59471;42.254;23.102;2023-05-20T10:32:48;95866.78;;;24.13;36.33
71621;BME280;59471;42.254;23.102;2023-05-20T10:35:23;95851.81;;;24.12;37.82
71621;BME280;59471;42.254;23.102;2023-05-20T10:37:54;95848.31;;;24.12;36.94
71621;BME280;59471;42.254;23.102;2023-05-20T10:40:30;95839.78;;;24.20;34.88
71621;BME280;59471;42.254;23.102;2023-05-20T10:42:55;95844.91;;;24.37;34.58
71621;BME280;59471;42.254;23.102;2023-05-20T10:45:28;95837.19;;;24.45;33.34
71621;BME280;59471;42.254;23.102;2023-05-20T10:47:55;95839.34;;;24.43;34.57
71621;BME280;59471;42.254;23.102;2023-05-20T10:50:26;95853.31;;;23.88;37.52
71621;BME280;59471;42.254;23.102;2023-05-20T10:53:06;95858.47;;;23.57;39.86
71621;BME280;59471;42.254;23.102;2023-05-20T10:55:37;95875.22;;;23.85;40.47
71621;BME280;59471;42.254;23.102;2023-05-20T10:58:04;95883.03;;;23.49;42.00
71621;BME280;59471;42.254;23.102;2023-05-20T11:00:33;95875.69;;;22.70;42.02
71621;BME280;59471;42.254;23.102;2023-05-20T11:03:00;95874.59;;;22.65;41.43
71621;BME280;59471;42.254;23.102;2023-05-20T11:05:26;95883.31;;;22.56;42.81
71621;BME280;59471;42.254;23.102;2023-05-20T11:08:02;95886.16;;;22.22;43.20
71621;BME280;59471;42.254;23.102;2023-05-20T11:10:29;95897.00;;;21.55;43.53
71621;BME280;59471;42.254;23.102;2023-05-20T11:12:56;95914.44;;;21.12;44.99
71621;BME280;59471;42.254;23.102;2023-05-20T11:15:22;95923.94;;;20.91;46.12
71621;BME280;59471;42.254;23.102;2023-05-20T11:17:59;95920.16;;;20.58;48.82
71621;BME280;59471;42.254;23.102;2023-05-20T11:20:26;95926.72;;;20.27;52.45
71621;BME280;59471;42.254;23.102;2023-05-20T11:22:53;95934.78;;;19.56;57.54
71621;BME280;59471;42.254;23.102;2023-05-20T11:25:19;95942.50;;;19.22;58.57
71621;BME280;59471;42.254;23.102;2023-05-20T11:27:45;95927.78;;;18.85;59.94
71621;BME280;59471;42.254;23.102;2023-05-20T11:30:15;95937.19;;;18.50;63.53
71621;BME280;59471;42.254;23.102;2023-05-20T11:32:59;95923.44;;;18.12;66.60
71621;BME280;59471;42.254;23.102;2023-05-20T11:35:26;95920.25;;;18.21;65.29
71621;BME280;59471;42.254;23.102;2023-05-20T11:37:57;95918.03;;;18.18;66.63
71621;BME280;59471;42.254;23.102;2023-05-20T11:40:26;95912.66;;;18.25;65.78
71621;BME280;59471;42.254;23.102;2023-05-20T11:42:53;95904.00;;;18.48;65.33
71621;BME280;59471;42.254;23.102;2023-05-20T11:45:20;95889.19;;;18.70;66.13
71621;BME280;59471;42.254;23.102;2023-05-20T11:47:46;95893.56;;;19.18;62.92
71621;BME280;59471;42.254;23.102;2023-05-20T11:50:23;95888.38;;;19.47;61.21
71621;BME280;59471;42.254;23.102;2023-05-20T11:52:56;95876.72;;;19.25;60.32
71621;BME280;59471;42.254;23.102;2023-05-20T11:55:22;95871.88;;;19.33;60.17
71621;BME280;59471;42.254;23.102;2023-05-20T11:57:49;95863.91;;;19.33;59.12
71621;BME280;59471;42.254;23.102;2023-05-20T12:00:15;95854.22;;;19.39;57.13
71621;BME280;59471;42.254;23.102;2023-05-20T12:02:42;95858.81;;;19.55;56.95
71621;BME280;59471;42.254;23.102;2023-05-20T12:05:08;95849.19;;;19.54;54.77
71621;BME280;59471;42.254;23.102;2023-05-20T12:07:34;95854.84;;;19.81;52.98
71621;BME280;59471;42.254;23.102;2023-05-20T12:10:02;95871.59;;;19.82;55.27
71621;BME280;59471;42.254;23.102;2023-05-20T12:12:27;95865.50;;;19.70;59.89
71621;BME280;59471;42.254;23.102;2023-05-20T12:14:53;95872.78;;;19.15;64.49
71621;BME280;59471;42.254;23.102;2023-05-20T12:17:18;95848.44;;;19.18;62.97
71621;BME280;59471;42.254;23.102;2023-05-20T12:19:44;95849.56;;;19.22;62.48
71621;BME280;59471;42.254;23.102;2023-05-20T12:22:10;95841.84;;;19.33;62.05
71621;BME280;59471;42.254;23.102;2023-05-20T12:24:35;95820.13;;;19.48;61.17
71621;BME280;59471;42.254;23.102;2023-05-20T12:27:01;95816.44;;;20.01;57.44
71621;BME280;59471;42.254;23.102;2023-05-20T12:29:28;95813.38;;;20.37;56.93
71621;BME280;59471;42.254;23.102;2023-05-20T12:31:54;95810.03;;;20.76;54.47
71621;BME280;59471;42.254;23.102;2023-05-20T12:34:20;95798.69;;;21.36;54.05
71621;BME280;59471;42.254;23.102;2023-05-20T12:36:45;95797.59;;;21.76;53.28
71621;BME280;59471;42.254;23.102;2023-05-20T12:39:12;95784.81;;;21.78;53.23
71621;BME280;59471;42.254;23.102;2023-05-20T12:41:39;95783.34;;;22.14;52.76
71621;BME280;59471;42.254;23.102;2023-05-20T12:44:06;95784.97;;;22.42;51.42
71621;BME280;59471;42.254;23.102;2023-05-20T12:46:31;95780.50;;;22.48;49.62
71621;BME280;59471;42.254;23.102;2023-05-20T12:48:57;95777.50;;;22.44;51.56
71621;BME280;59471;42.254;23.102;2023-05-20T12:51:23;95766.06;;;22.81;51.02
71621;BME280;59471;42.254;23.102;2023-05-20T12:53:48;95764.94;;;22.72;50.72
71621;BME280;59471;42.254;23.102;2023-05-20T12:56:14;95761.81;;;22.85;48.22
71621;BME280;59471;42.254;23.102;2023-05-20T12:58:39;95756.19;;;22.82;49.40